Broadway, New Jersey
Current Conditions -  °F | °C
As of 3:38 AM on Monday 26 Jan 2015 (Local Time) from KABE Reporting Station
Light Snow Light Snow  
Wind Chill:   Ceiling: 2200
Heat Index: 21°   Visibility: 2mi
Dew Point: 18°   Wind: 13mph
Humidity: 86%   Direction: 60°ENE
Pressure: 29.96"   Gusts: NA
Location:  40.73°N, 75.05°W
Report Text: KABE 260838Z 06011KT 2SM -SN OVC022 M06/M08 A2996 RMK AO2 P0000
Loading
Personal Weather Stations






























Interactive Weather Map New forecast layout! Learn more

10-Day Weather Forecast

Advertisements
Track Severe Weather on mobile